createdAt,value
2022-10-23T00:00:27.696Z,6.68
2022-10-23T00:02:58.127Z,7.90
2022-10-23T00:05:28.168Z,9.30
2022-10-23T00:07:59.074Z,10.50
2022-10-23T00:10:28.885Z,9.48
2022-10-23T00:12:58.579Z,6.75
2022-10-23T00:15:28.923Z,6.45
2022-10-23T00:17:58.681Z,5.68
2022-10-23T00:20:28.339Z,5.10
2022-10-23T00:22:58.042Z,3.78
2022-10-23T00:25:27.766Z,3.40
2022-10-23T00:27:57.716Z,4.07
2022-10-23T00:30:27.737Z,4.20
2022-10-23T00:32:57.588Z,4.60
2022-10-23T00:35:27.408Z,6.03
2022-10-23T00:37:57.228Z,3.88
2022-10-23T00:40:26.998Z,4.07
2022-10-23T00:42:56.689Z,4.10
2022-10-23T00:45:29.844Z,3.90
2022-10-23T00:47:59.730Z,3.10
2022-10-23T00:50:30.164Z,3.05
2022-10-23T00:52:59.893Z,2.97
2022-10-23T00:55:30.128Z,5.25
2022-10-23T00:57:59.721Z,3.22
2022-10-23T01:00:33.971Z,3.20
2022-10-23T01:03:05.902Z,2.97
2022-10-23T01:05:38.358Z,4.22
2022-10-23T01:08:28.264Z,3.33
2022-10-23T01:11:01.109Z,3.60
2022-10-23T01:13:47.583Z,4.35
2022-10-23T01:16:21.822Z,3.85
2022-10-23T01:18:54.875Z,4.20
2022-10-23T01:21:42.865Z,3.47
2022-10-23T01:24:15.224Z,2.33
2022-10-23T01:26:44.978Z,2.63
2022-10-23T01:29:23.442Z,2.63
2022-10-23T01:31:55.807Z,2.40
2022-10-23T01:34:28.041Z,2.15
2022-10-23T01:36:57.835Z,2.97
2022-10-23T01:39:28.831Z,2.75
2022-10-23T01:41:59.816Z,3.55
2022-10-23T01:44:34.261Z,3.03
2022-10-23T01:47:04.128Z,2.80
2022-10-23T01:49:34.113Z,1.92
2022-10-23T01:52:04.518Z,2.38
2022-10-23T01:54:34.856Z,1.98
2022-10-23T01:57:04.740Z,1.75
2022-10-23T01:59:38.367Z,2.40
2022-10-23T02:02:08.342Z,2.35
2022-10-23T02:05:04.351Z,2.47
2022-10-23T02:07:34.049Z,2.20
2022-10-23T02:10:03.597Z,1.13
2022-10-23T02:12:33.172Z,1.30
2022-10-23T02:15:16.177Z,1.95
2022-10-23T02:17:48.638Z,1.50
2022-10-23T02:20:21.606Z,5.60
2022-10-23T02:22:57.275Z,2.25
2022-10-23T02:25:30.651Z,0.80
2022-10-23T02:28:01.204Z,0.70
2022-10-23T02:30:31.506Z,1.00
2022-10-23T02:33:01.360Z,0.80
2022-10-23T02:35:31.330Z,0.80
2022-10-23T02:38:01.908Z,0.88
2022-10-23T02:40:37.850Z,1.00
2022-10-23T02:43:17.978Z,1.00
2022-10-23T02:46:07.636Z,0.88
2022-10-23T02:48:48.701Z,0.60
2022-10-23T02:51:21.318Z,0.93
2022-10-23T02:54:11.011Z,0.93
2022-10-23T02:56:47.252Z,0.57
2022-10-23T02:59:26.004Z,0.70
2022-10-23T03:02:15.790Z,0.70
2022-10-23T03:04:45.477Z,0.90
2022-10-23T03:07:18.572Z,0.75
2022-10-23T03:09:48.472Z,0.80
2022-10-23T03:12:18.395Z,0.40
2022-10-23T03:14:48.119Z,0.55
2022-10-23T03:17:18.166Z,0.45
2022-10-23T03:19:48.015Z,0.45
2022-10-23T03:22:17.809Z,0.35
2022-10-23T03:24:47.619Z,0.30
2022-10-23T03:27:17.910Z,0.40
2022-10-23T03:29:51.102Z,0.40
2022-10-23T03:32:20.964Z,0.30
2022-10-23T03:34:50.846Z,0.50
2022-10-23T03:37:20.751Z,0.30
2022-10-23T03:39:53.910Z,0.50
2022-10-23T03:42:26.903Z,0.40
2022-10-23T03:44:56.960Z,0.32
2022-10-23T03:47:26.727Z,0.50
2022-10-23T03:49:56.551Z,0.40
2022-10-23T03:52:26.510Z,0.80
2022-10-23T03:54:58.682Z,0.77
2022-10-23T03:57:28.722Z,0.40
2022-10-23T03:59:58.479Z,0.50
2022-10-23T04:02:28.444Z,0.40
2022-10-23T04:04:58.299Z,0.40
2022-10-23T04:07:30.859Z,0.77
2022-10-23T04:10:04.208Z,0.50
2022-10-23T04:12:34.269Z,0.50
2022-10-23T04:15:03.983Z,0.80
2022-10-23T04:17:33.973Z,0.95
2022-10-23T04:20:04.037Z,0.60
2022-10-23T04:22:34.259Z,0.90
2022-10-23T04:25:07.591Z,1.20
2022-10-23T04:27:37.265Z,1.50
2022-10-23T04:30:07.331Z,1.00
2022-10-23T04:32:37.452Z,1.00
2022-10-23T04:35:07.423Z,0.68
2022-10-23T04:37:37.441Z,1.30
2022-10-23T04:40:07.477Z,1.13
2022-10-23T04:42:37.067Z,3.15
2022-10-23T04:45:07.146Z,1.08
2022-10-23T04:47:36.838Z,1.10
2022-10-23T04:50:06.649Z,1.23
2022-10-23T04:52:36.458Z,0.82
2022-10-23T04:55:06.582Z,0.73
2022-10-23T04:57:36.593Z,0.75
2022-10-23T05:00:09.390Z,0.70
2022-10-23T05:02:39.582Z,0.50
2022-10-23T05:05:09.883Z,0.63
2022-10-23T05:07:40.237Z,0.50
2022-10-23T05:10:10.238Z,0.30
2022-10-23T05:12:40.231Z,0.20
2022-10-23T05:15:10.184Z,0.60
2022-10-23T05:17:40.645Z,0.22
2022-10-23T05:20:10.954Z,0.50
2022-10-23T05:22:43.634Z,0.60
2022-10-23T05:25:13.666Z,0.40
2022-10-23T05:27:43.616Z,0.30
2022-10-23T05:30:13.960Z,0.20
2022-10-23T05:32:44.223Z,0.40
2022-10-23T05:35:16.047Z,0.40
2022-10-23T05:37:46.794Z,0.65
2022-10-23T05:40:16.920Z,0.40
2022-10-23T05:42:46.909Z,0.40
2022-10-23T05:45:16.983Z,1.10
2022-10-23T05:47:47.289Z,1.10
2022-10-23T05:50:17.169Z,1.33
2022-10-23T05:52:50.817Z,1.08
2022-10-23T05:55:21.319Z,1.05
2022-10-23T05:57:51.199Z,1.88
2022-10-23T06:00:21.078Z,1.35
2022-10-23T06:02:51.193Z,1.50
2022-10-23T06:05:24.488Z,0.60
2022-10-23T06:07:54.546Z,0.85
2022-10-23T06:10:24.265Z,1.15
2022-10-23T06:12:54.211Z,1.50
2022-10-23T06:15:27.411Z,1.00
2022-10-23T06:18:07.107Z,0.50
2022-10-23T06:20:41.029Z,0.80
2022-10-23T06:23:10.845Z,0.70
2022-10-23T06:25:40.548Z,0.95
2022-10-23T06:28:15.909Z,0.77
2022-10-23T06:30:48.424Z,0.80
2022-10-23T06:33:21.606Z,0.68
2022-10-23T06:35:51.549Z,0.60
2022-10-23T06:38:21.750Z,0.75
2022-10-23T06:40:58.009Z,0.50
2022-10-23T06:43:27.908Z,0.32
2022-10-23T06:45:57.675Z,0.40
2022-10-23T06:48:27.497Z,3.33
2022-10-23T06:50:57.556Z,1.77
2022-10-23T06:53:27.511Z,0.50
2022-10-23T06:56:01.921Z,0.70
2022-10-23T06:58:31.756Z,0.50
2022-10-23T07:01:08.274Z,0.55
2022-10-23T07:03:38.691Z,0.80
2022-10-23T07:06:08.949Z,0.93
2022-10-23T07:08:39.389Z,0.93
2022-10-23T07:11:09.780Z,0.85
2022-10-23T07:13:40.655Z,0.98
2022-10-23T07:16:16.881Z,1.33
2022-10-23T07:18:47.136Z,2.45
2022-10-23T07:21:16.938Z,1.48
2022-10-23T07:23:46.648Z,1.38
2022-10-23T07:26:17.293Z,1.33
2022-10-23T07:28:48.062Z,2.30
2022-10-23T07:31:21.997Z,3.30
2022-10-23T07:33:53.543Z,1.60
2022-10-23T07:36:23.554Z,0.90
2022-10-23T07:38:54.061Z,0.70
2022-10-23T07:41:23.928Z,0.52
2022-10-23T07:43:53.910Z,0.98
2022-10-23T07:46:24.028Z,1.02
2022-10-23T07:48:53.771Z,0.40
2022-10-23T07:51:23.957Z,0.47
2022-10-23T07:53:55.758Z,0.43
2022-10-23T07:56:26.657Z,0.40
2022-10-23T07:58:59.238Z,0.50
2022-10-23T08:01:40.947Z,0.50
2022-10-23T08:04:11.032Z,0.63
2022-10-23T08:06:41.495Z,0.70
2022-10-23T08:09:11.285Z,0.85
2022-10-23T08:11:41.566Z,1.90
2022-10-23T08:14:11.651Z,2.40
2022-10-23T08:16:42.118Z,4.35
2022-10-23T08:19:16.904Z,4.68
2022-10-23T08:21:46.783Z,1.80
2022-10-23T08:24:16.720Z,1.02
2022-10-23T08:26:46.477Z,1.40
2022-10-23T08:29:16.374Z,1.15
2022-10-23T08:31:49.309Z,2.00
2022-10-23T08:34:20.215Z,3.15
2022-10-23T08:36:50.276Z,2.53
2022-10-23T08:39:22.975Z,2.20
2022-10-23T08:41:53.673Z,2.80
2022-10-23T08:44:26.998Z,2.92
2022-10-23T08:47:00.535Z,2.75
2022-10-23T08:49:39.576Z,2.88
2022-10-23T08:54:58.857Z,2.40
2022-10-23T08:57:42.866Z,2.03
2022-10-23T09:00:21.584Z,3.03
2022-10-23T09:02:53.318Z,4.28
2022-10-23T09:05:47.281Z,4.03
2022-10-23T09:08:35.500Z,3.80
2022-10-23T09:11:08.797Z,2.80
2022-10-23T09:13:57.042Z,2.97
2022-10-23T09:16:36.638Z,2.13
2022-10-23T09:19:18.151Z,3.60
2022-10-23T09:21:52.666Z,5.13
2022-10-23T09:24:24.483Z,3.08
2022-10-23T09:26:55.083Z,4.28
2022-10-23T09:29:29.121Z,4.82
2022-10-23T09:32:00.720Z,5.15
2022-10-23T09:34:31.603Z,5.15
2022-10-23T09:37:02.473Z,3.95
2022-10-23T09:39:33.168Z,5.50
2022-10-23T09:42:05.555Z,3.85
2022-10-23T09:44:41.125Z,3.50
2022-10-23T09:47:12.915Z,4.30
2022-10-23T09:49:43.608Z,4.35
2022-10-23T09:52:13.455Z,3.78
2022-10-23T09:55:03.521Z,3.40
2022-10-23T09:57:34.504Z,4.28
2022-10-23T10:00:06.614Z,4.00
2022-10-23T10:02:37.817Z,3.15
2022-10-23T10:05:26.210Z,4.28
2022-10-23T10:07:59.022Z,4.45
2022-10-23T10:10:30.159Z,5.18
2022-10-23T10:13:01.080Z,4.57
2022-10-23T10:15:33.508Z,4.63
2022-10-23T10:18:06.030Z,5.03
2022-10-23T10:20:45.253Z,3.72
2022-10-23T10:23:20.940Z,4.55
2022-10-23T10:26:09.126Z,3.67
2022-10-23T10:28:54.145Z,3.43
2022-10-23T10:31:49.357Z,3.45
2022-10-23T10:34:24.946Z,3.25
2022-10-23T10:36:54.824Z,3.28
2022-10-23T10:39:41.358Z,2.70
2022-10-23T10:42:14.142Z,2.65
2022-10-23T10:44:53.027Z,3.03
2022-10-23T10:47:25.827Z,2.65
2022-10-23T10:50:02.706Z,3.22
2022-10-23T10:52:55.638Z,3.08
2022-10-23T10:55:31.176Z,4.22
2022-10-23T10:58:20.980Z,3.70
2022-10-23T11:00:52.515Z,3.20
2022-10-23T11:03:37.546Z,4.82
2022-10-23T11:06:13.459Z,3.85
2022-10-23T11:08:57.605Z,3.60
2022-10-23T11:11:37.775Z,3.42
2022-10-23T11:14:07.461Z,2.13
2022-10-23T11:16:37.936Z,2.75
2022-10-23T11:19:12.969Z,2.40
2022-10-23T11:21:47.641Z,2.15
2022-10-23T11:24:29.791Z,1.95
2022-10-23T11:27:12.061Z,2.03
2022-10-23T11:29:49.530Z,2.00
2022-10-23T11:32:22.389Z,1.90
2022-10-23T11:34:57.795Z,1.88
2022-10-23T11:37:31.248Z,2.17
2022-10-23T11:40:10.033Z,2.70
2022-10-23T11:42:42.790Z,2.40
2022-10-23T11:45:31.344Z,2.78
2022-10-23T11:48:02.246Z,2.95
2022-10-23T11:50:35.901Z,2.50
2022-10-23T11:53:14.366Z,3.33
2022-10-23T11:55:58.800Z,3.60
2022-10-23T11:58:35.358Z,3.83
2022-10-23T12:01:08.865Z,2.95
2022-10-23T12:03:52.392Z,4.30
2022-10-23T12:06:26.668Z,3.60
2022-10-23T12:08:57.511Z,3.97
2022-10-23T12:11:31.568Z,18.20
2022-10-23T12:14:01.287Z,6.20
2022-10-23T12:16:38.381Z,4.93
2022-10-23T12:19:16.331Z,4.78
2022-10-23T12:21:49.490Z,4.65
2022-10-23T12:24:41.333Z,4.05
2022-10-23T12:27:29.506Z,3.25
2022-10-23T12:30:34.407Z,3.83
2022-10-23T12:33:18.310Z,3.97
2022-10-23T12:35:50.371Z,3.58
2022-10-23T12:38:20.475Z,3.25
2022-10-23T12:41:08.667Z,3.25
2022-10-23T12:43:39.643Z,4.30
2022-10-23T12:46:21.966Z,5.30
2022-10-23T12:48:52.622Z,4.45
2022-10-23T12:51:26.095Z,4.63
2022-10-23T12:53:56.089Z,5.30
2022-10-23T12:56:28.515Z,5.57
2022-10-23T12:59:03.897Z,5.63
2022-10-23T13:01:34.631Z,5.70
2022-10-23T13:04:13.904Z,5.40
2022-10-23T13:06:43.808Z,5.35
2022-10-23T13:09:25.349Z,5.47
2022-10-23T13:11:55.373Z,4.35
2022-10-23T13:14:32.141Z,5.13
2022-10-23T13:17:05.774Z,4.28
2022-10-23T13:19:36.057Z,4.15
2022-10-23T13:22:24.003Z,3.60
2022-10-23T13:24:54.073Z,4.40
2022-10-23T13:27:27.592Z,4.70
2022-10-23T13:29:57.318Z,4.32
2022-10-23T13:32:28.122Z,4.88
2022-10-23T13:35:04.408Z,3.05
2022-10-23T13:37:47.199Z,3.03
2022-10-23T13:40:26.583Z,4.15
2022-10-23T13:42:57.590Z,3.35
2022-10-23T13:45:28.221Z,3.33
2022-10-23T13:47:58.017Z,3.13
2022-10-23T13:50:28.069Z,3.10
2022-10-23T13:52:58.171Z,2.40
2022-10-23T13:55:28.578Z,3.13
2022-10-23T13:57:58.511Z,2.65
2022-10-23T14:00:28.439Z,3.00
2022-10-23T14:02:58.096Z,2.63
2022-10-23T14:05:27.743Z,2.40
2022-10-23T14:07:57.655Z,2.25
2022-10-23T14:10:27.889Z,1.65
2022-10-23T14:12:57.791Z,1.60
2022-10-23T14:15:27.438Z,1.60
2022-10-23T14:17:59.478Z,2.25
2022-10-23T14:20:30.702Z,1.30
2022-10-23T14:23:00.353Z,1.25
2022-10-23T14:25:30.202Z,1.50
2022-10-23T14:27:59.956Z,1.15
2022-10-23T14:30:30.011Z,1.30
2022-10-23T14:32:59.695Z,1.70
2022-10-23T14:35:29.544Z,1.02
2022-10-23T14:38:00.228Z,1.20
2022-10-23T14:40:30.221Z,2.15
2022-10-23T14:43:00.114Z,1.77
2022-10-23T14:45:31.384Z,1.98
2022-10-23T14:48:02.710Z,3.22
2022-10-23T14:50:33.848Z,3.05
2022-10-23T14:53:03.562Z,2.00
2022-10-23T14:55:33.677Z,2.42
2022-10-23T14:58:03.590Z,2.00
2022-10-23T15:00:33.398Z,2.90
2022-10-23T15:03:03.305Z,2.00
2022-10-23T15:05:32.993Z,1.70
2022-10-23T15:08:03.161Z,1.48
2022-10-23T15:10:32.994Z,1.02
2022-10-23T15:13:02.862Z,1.30
2022-10-23T15:15:32.537Z,1.50
2022-10-23T15:18:02.123Z,1.48
2022-10-23T15:20:32.055Z,1.20
2022-10-23T15:23:02.879Z,1.38
2022-10-23T15:25:32.615Z,1.67
2022-10-23T15:28:02.227Z,0.80
2022-10-23T15:30:33.013Z,1.73
2022-10-23T15:33:02.970Z,25.38
2022-10-23T15:35:33.768Z,2.72
2022-10-23T15:38:03.636Z,2.20
2022-10-23T15:40:33.292Z,2.40
2022-10-23T15:43:02.937Z,1.88
2022-10-23T15:45:32.499Z,1.80
2022-10-23T15:48:02.148Z,1.95
2022-10-23T15:50:31.983Z,1.70
2022-10-23T15:53:01.758Z,1.98
2022-10-23T15:55:34.111Z,1.42
2022-10-23T15:58:06.263Z,1.83
2022-10-23T16:00:38.341Z,1.40
2022-10-23T16:03:08.224Z,1.27
2022-10-23T16:05:38.847Z,1.38
2022-10-23T16:08:08.498Z,1.35
2022-10-23T16:10:47.057Z,1.88
2022-10-23T16:13:16.768Z,1.20
2022-10-23T16:15:46.394Z,1.48
2022-10-23T16:18:17.700Z,1.00
2022-10-23T16:20:47.436Z,1.20
2022-10-23T16:23:17.090Z,1.20
2022-10-23T16:25:47.869Z,2.30
2022-10-23T16:28:17.549Z,1.52
2022-10-23T16:30:48.009Z,1.48
2022-10-23T16:33:17.765Z,1.52
2022-10-23T16:35:47.529Z,1.67
2022-10-23T16:38:17.378Z,2.03
2022-10-23T16:40:53.205Z,2.13
2022-10-23T16:43:23.008Z,1.85
2022-10-23T16:46:02.499Z,2.88
2022-10-23T16:48:32.717Z,2.85
2022-10-23T16:51:02.543Z,2.80
2022-10-23T16:53:32.288Z,3.55
2022-10-23T16:56:02.161Z,2.78
2022-10-23T16:58:31.855Z,2.22
2022-10-23T17:01:03.016Z,2.20
2022-10-23T17:03:32.942Z,2.35
2022-10-23T17:06:05.028Z,1.90
2022-10-23T17:08:36.916Z,2.17
2022-10-23T17:11:07.800Z,3.42
2022-10-23T17:13:37.625Z,2.13
2022-10-23T17:16:11.478Z,2.00
2022-10-23T17:18:43.847Z,2.47
2022-10-23T17:21:14.907Z,1.48
2022-10-23T17:23:44.882Z,1.40
2022-10-23T17:26:15.243Z,1.48
2022-10-23T17:28:45.047Z,0.73
2022-10-23T17:31:25.411Z,0.63
2022-10-23T17:33:56.060Z,0.90
2022-10-23T17:36:25.878Z,1.00
2022-10-23T17:38:55.606Z,1.35
2022-10-23T17:41:25.862Z,0.73
2022-10-23T17:43:58.599Z,1.50
2022-10-23T17:46:28.401Z,0.80
2022-10-23T17:51:34.573Z,0.70
2022-10-23T17:54:05.737Z,0.70
2022-10-23T17:56:35.714Z,1.00
2022-10-23T17:59:06.596Z,0.73
2022-10-23T18:01:36.474Z,2.08
2022-10-23T18:04:07.121Z,0.80
2022-10-23T18:06:38.255Z,1.00
2022-10-23T18:09:07.976Z,0.60
2022-10-23T18:11:39.893Z,0.60
2022-10-23T18:14:11.376Z,0.85
2022-10-23T18:16:42.137Z,0.60
2022-10-23T18:19:12.081Z,0.70
2022-10-23T18:21:41.903Z,1.45
2022-10-23T18:24:11.834Z,1.00
2022-10-23T18:26:42.677Z,1.30
2022-10-23T18:29:12.712Z,1.48
2022-10-23T18:31:42.786Z,1.25
2022-10-23T18:34:22.481Z,1.35
2022-10-23T18:36:52.700Z,1.50
2022-10-23T18:39:23.862Z,1.27
2022-10-23T18:41:54.391Z,1.55
2022-10-23T18:44:24.639Z,1.25
2022-10-23T18:46:54.879Z,1.13
2022-10-23T18:49:24.741Z,1.33
2022-10-23T18:51:54.513Z,0.82
2022-10-23T18:54:24.831Z,1.13
2022-10-23T18:56:54.499Z,1.35
2022-10-23T18:59:24.535Z,0.90
2022-10-23T19:01:54.428Z,1.35
2022-10-23T19:04:24.164Z,1.35
2022-10-23T19:06:53.751Z,2.45
2022-10-23T19:09:23.557Z,0.85
2022-10-23T19:11:53.379Z,1.10
2022-10-23T19:14:23.326Z,1.10
2022-10-23T19:16:56.209Z,1.00
2022-10-23T19:19:27.387Z,2.58
2022-10-23T19:21:57.082Z,1.10
2022-10-23T19:24:47.036Z,1.67
2022-10-23T19:27:16.963Z,1.40
2022-10-23T19:29:47.335Z,2.10
2022-10-23T19:32:17.308Z,1.13
2022-10-23T19:34:47.273Z,1.10
2022-10-23T19:37:18.119Z,1.50
2022-10-23T19:39:48.187Z,1.38
2022-10-23T19:42:17.818Z,1.23
2022-10-23T19:44:47.654Z,1.67
2022-10-23T19:47:17.334Z,2.05
2022-10-23T19:49:52.187Z,1.50
2022-10-23T19:52:23.646Z,1.58
2022-10-23T19:54:53.624Z,1.92
2022-10-23T19:57:23.517Z,1.45
2022-10-23T19:59:53.600Z,1.70
2022-10-23T20:02:23.529Z,1.88
2022-10-23T20:04:53.907Z,1.50
2022-10-23T20:07:24.020Z,1.88
2022-10-23T20:09:53.739Z,1.60
2022-10-23T20:12:23.748Z,1.63
2022-10-23T20:14:56.232Z,1.80
2022-10-23T20:17:25.943Z,2.63
2022-10-23T20:19:55.651Z,1.98
2022-10-23T20:22:25.456Z,1.63
2022-10-23T20:24:55.117Z,2.13
2022-10-23T20:27:24.829Z,2.47
2022-10-23T20:29:54.881Z,2.67
2022-10-23T20:32:24.559Z,2.72
2022-10-23T20:34:54.479Z,3.25
2022-10-23T20:37:24.253Z,3.30
2022-10-23T20:39:53.889Z,4.35
2022-10-23T20:42:23.593Z,3.80
2022-10-23T20:44:53.341Z,4.78
2022-10-23T20:47:23.416Z,3.70
2022-10-23T20:49:53.194Z,3.55
2022-10-23T20:52:23.724Z,3.22
2022-10-23T20:54:53.510Z,2.63
2022-10-23T20:57:23.200Z,2.88
2022-10-23T20:59:52.890Z,2.58
2022-10-23T21:02:22.773Z,2.50
2022-10-23T21:04:52.853Z,2.95
2022-10-23T21:07:22.562Z,1.77
2022-10-23T21:09:52.430Z,2.03
2022-10-23T21:12:22.217Z,1.90
2022-10-23T21:14:51.861Z,1.80
2022-10-23T21:17:21.573Z,1.67
2022-10-23T21:19:51.784Z,3.20
2022-10-23T21:22:21.579Z,2.47
2022-10-23T21:24:51.264Z,1.95
2022-10-23T21:27:21.057Z,2.65
2022-10-23T21:29:50.860Z,2.60
2022-10-23T21:32:21.960Z,3.63
2022-10-23T21:34:51.661Z,4.28
2022-10-23T21:37:21.511Z,3.90
2022-10-23T21:39:54.931Z,7.45
2022-10-23T21:42:25.048Z,10.38
2022-10-23T21:44:55.462Z,8.68
2022-10-23T21:47:25.330Z,9.27
2022-10-23T21:49:55.022Z,9.07
2022-10-23T21:52:24.720Z,9.43
2022-10-23T21:54:55.136Z,10.43
2022-10-23T21:57:24.708Z,10.60
2022-10-23T21:59:54.649Z,12.75
2022-10-23T22:02:24.747Z,16.35
2022-10-23T22:04:54.580Z,11.57
2022-10-23T22:07:24.288Z,15.88
2022-10-23T22:09:54.247Z,17.35
2022-10-23T22:12:24.323Z,12.25
2022-10-23T22:14:54.334Z,3.25
2022-10-23T22:17:24.059Z,1.60
2022-10-23T22:19:53.812Z,1.35
2022-10-23T22:22:23.469Z,1.40
2022-10-23T22:24:56.476Z,1.10
2022-10-23T22:27:26.208Z,1.25
2022-10-23T22:29:56.398Z,1.73
2022-10-23T22:32:26.186Z,1.98
2022-10-23T22:34:55.837Z,1.13
2022-10-23T22:37:25.497Z,1.48
2022-10-23T22:39:55.404Z,1.35
2022-10-23T22:42:25.273Z,1.45
2022-10-23T22:44:55.011Z,2.28
2022-10-23T22:47:24.621Z,2.20
2022-10-23T22:49:54.332Z,2.28
2022-10-23T22:52:24.225Z,3.55
2022-10-23T22:54:53.938Z,2.08
2022-10-23T22:57:23.902Z,2.90
2022-10-23T22:59:53.500Z,2.83
2022-10-23T23:02:23.401Z,2.03
2022-10-23T23:04:53.136Z,2.25
2022-10-23T23:07:23.079Z,2.13
2022-10-23T23:09:52.831Z,2.47
2022-10-23T23:12:22.612Z,2.15
2022-10-23T23:14:52.471Z,2.30
2022-10-23T23:17:22.329Z,2.42
2022-10-23T23:19:52.052Z,2.63
2022-10-23T23:22:21.889Z,3.05
2022-10-23T23:24:51.615Z,3.05
2022-10-23T23:27:21.394Z,2.78
2022-10-23T23:29:51.661Z,2.95
2022-10-23T23:32:21.498Z,3.33
2022-10-23T23:34:51.248Z,3.30
2022-10-23T23:37:21.145Z,3.40
2022-10-23T23:39:54.762Z,3.97
2022-10-23T23:42:24.752Z,2.90
2022-10-23T23:45:02.791Z,3.50
2022-10-23T23:47:43.889Z,3.90
2022-10-23T23:50:14.094Z,4.00
2022-10-23T23:52:44.155Z,4.10
2022-10-23T23:55:13.859Z,3.83
2022-10-23T23:57:43.956Z,3.42
